Mingo, West Virginia
Current Conditions -  °F | °C
As of 9:51 PM on Friday 21 Nov 2014 (Local Time) from KEKN Reporting Station
Clear Clear  
Wind Chill: 16°   Ceiling: Unl
Heat Index: 16°   Visibility: 10mi
Dew Point: 13°   Wind: 0mph
Humidity: 88%   Direction: NA
Pressure: 30.43"   Gusts: NA
Location:  38.5201°N, 80.0382°W
Report Text: KEKN 220251Z AUTO 00000KT 10SM CLR M09/M11 A3043 RMK AO2 SLP343 T10891106 58003 TSNO
Loading
Personal Weather Stations






























Interactive Weather Map New forecast layout! Learn more

10-Day Weather Forecast

Advertisements
Track Severe Weather on mobile